createdAt,value
2022-08-26T00:03:32.217Z,5.25
2022-08-26T00:08:54.016Z,5.03
2022-08-26T00:14:16.232Z,5.00
2022-08-26T00:19:20.350Z,5.82
2022-08-26T00:24:22.678Z,4.88
2022-08-26T00:29:25.890Z,4.82
2022-08-26T00:34:28.429Z,4.57
2022-08-26T00:39:31.392Z,5.00
2022-08-26T00:44:33.756Z,5.30
2022-08-26T00:49:44.958Z,4.25
2022-08-26T00:54:57.305Z,5.53
2022-08-26T01:00:02.196Z,5.38
2022-08-26T01:05:05.858Z,5.35
2022-08-26T01:10:13.737Z,5.03
2022-08-26T01:15:43.782Z,4.88
2022-08-26T01:21:16.925Z,5.25
2022-08-26T01:26:24.626Z,5.55
2022-08-26T01:31:32.241Z,4.70
2022-08-26T01:36:34.857Z,5.43
2022-08-26T01:41:39.461Z,5.03
2022-08-26T01:46:46.159Z,4.68
2022-08-26T01:51:51.717Z,5.55
2022-08-26T01:56:55.378Z,5.65
2022-08-26T02:01:58.925Z,5.25
2022-08-26T02:07:09.199Z,4.57
2022-08-26T02:17:52.636Z,5.53
2022-08-26T02:23:13.570Z,6.00
2022-08-26T02:28:15.749Z,5.72
2022-08-26T02:33:22.084Z,5.53
2022-08-26T02:38:24.786Z,5.75
2022-08-26T02:43:31.532Z,6.28
2022-08-26T02:48:35.237Z,5.75
2022-08-26T02:53:38.256Z,5.38
2022-08-26T02:59:00.799Z,6.90
2022-08-26T03:04:21.817Z,6.00
2022-08-26T03:09:47.056Z,5.50
2022-08-26T03:14:50.306Z,4.82
2022-08-26T03:20:15.564Z,5.25
2022-08-26T03:25:21.256Z,5.78
2022-08-26T03:30:23.878Z,5.70
2022-08-26T03:35:26.556Z,5.82
2022-08-26T03:40:29.020Z,6.47
2022-08-26T03:45:31.718Z,6.45
2022-08-26T03:50:35.991Z,6.65
2022-08-26T03:55:38.297Z,5.82
2022-08-26T04:00:42.258Z,5.65
2022-08-26T04:05:45.456Z,7.05
2022-08-26T04:10:48.757Z,6.07
2022-08-26T04:15:54.001Z,5.93
2022-08-26T04:21:15.377Z,5.47
2022-08-26T04:26:20.735Z,5.70
2022-08-26T04:31:23.226Z,6.10
2022-08-26T04:36:26.217Z,6.30
2022-08-26T04:41:31.654Z,5.70
2022-08-26T04:46:34.833Z,5.78
2022-08-26T04:51:39.636Z,5.43
2022-08-26T04:56:47.916Z,6.55
2022-08-26T05:01:53.559Z,6.55
2022-08-26T05:07:02.883Z,7.43
2022-08-26T05:12:27.298Z,6.65
2022-08-26T05:17:33.435Z,6.47
2022-08-26T05:22:37.896Z,5.80
2022-08-26T05:27:40.646Z,5.78
2022-08-26T05:32:43.324Z,6.03
2022-08-26T05:38:12.490Z,5.68
2022-08-26T05:43:16.917Z,5.72
2022-08-26T05:48:24.526Z,6.30
2022-08-26T05:53:28.064Z,6.03
2022-08-26T05:58:30.856Z,6.25
2022-08-26T06:03:36.737Z,7.03
2022-08-26T06:08:39.958Z,6.65
2022-08-26T06:13:43.957Z,6.72
2022-08-26T06:19:10.794Z,7.38
2022-08-26T06:29:36.443Z,5.70
2022-08-26T06:34:39.900Z,6.20
2022-08-26T06:39:42.136Z,5.63
2022-08-26T06:44:44.709Z,6.15
2022-08-26T06:49:47.165Z,5.53
2022-08-26T06:55:10.256Z,6.00
2022-08-26T07:00:13.416Z,5.88
2022-08-26T07:05:35.657Z,5.70
2022-08-26T07:10:56.949Z,4.70
2022-08-26T07:16:03.057Z,5.32
2022-08-26T07:21:09.928Z,5.85
2022-08-26T07:26:16.077Z,5.22
2022-08-26T07:31:21.339Z,5.88
2022-08-26T07:36:25.096Z,5.57
2022-08-26T07:41:27.456Z,4.72
2022-08-26T07:46:30.243Z,4.78
2022-08-26T07:51:33.368Z,4.90
2022-08-26T07:56:56.055Z,4.68
2022-08-26T08:01:58.413Z,3.83
2022-08-26T08:07:01.156Z,4.00
2022-08-26T08:12:05.625Z,4.45
2022-08-26T08:17:08.651Z,3.65
2022-08-26T08:22:17.915Z,4.00
2022-08-26T08:27:23.950Z,3.42
2022-08-26T08:32:26.616Z,3.38
2022-08-26T08:37:28.917Z,3.38
2022-08-26T08:43:12.366Z,3.38
2022-08-26T08:48:37.197Z,3.13
2022-08-26T08:53:44.436Z,4.00
2022-08-26T09:03:59.998Z,3.00
2022-08-26T09:09:05.084Z,2.85
2022-08-26T09:14:27.657Z,2.83
2022-08-26T09:19:47.007Z,2.55
2022-08-26T09:24:50.199Z,2.75
2022-08-26T09:30:18.586Z,1.63
2022-08-26T09:35:34.725Z,1.90
2022-08-26T09:41:01.797Z,1.80
2022-08-26T09:46:32.053Z,2.55
2022-08-26T09:51:34.378Z,2.75
2022-08-26T09:56:39.365Z,2.63
2022-08-26T10:01:44.702Z,2.40
2022-08-26T10:07:07.638Z,2.88
2022-08-26T10:12:28.698Z,2.72
2022-08-26T10:18:01.491Z,2.80
2022-08-26T10:23:12.377Z,2.50
2022-08-26T10:28:44.417Z,2.70
2022-08-26T10:33:47.204Z,2.80
2022-08-26T10:39:14.979Z,2.38
2022-08-26T10:44:18.626Z,3.03
2022-08-26T10:49:20.996Z,2.35
2022-08-26T10:54:50.265Z,2.55
2022-08-26T11:00:28.597Z,2.22
2022-08-26T11:05:30.937Z,1.92
2022-08-26T11:10:51.863Z,1.98
2022-08-26T11:15:54.400Z,2.00
2022-08-26T11:20:56.677Z,1.73
2022-08-26T11:25:58.757Z,1.98
2022-08-26T11:31:04.456Z,2.00
2022-08-26T11:36:33.697Z,1.85
2022-08-26T11:41:36.417Z,2.10
2022-08-26T11:46:39.797Z,1.73
2022-08-26T11:51:45.226Z,1.75
2022-08-26T11:57:13.504Z,1.73
2022-08-26T12:02:18.163Z,2.72
2022-08-26T12:07:39.257Z,2.00
2022-08-26T12:12:55.228Z,1.90
2022-08-26T12:17:58.816Z,1.80
2022-08-26T12:23:02.045Z,2.13
2022-08-26T12:28:06.030Z,2.25
2022-08-26T12:33:22.144Z,2.17
2022-08-26T12:38:27.269Z,1.90
2022-08-26T12:43:48.064Z,2.20
2022-08-26T12:48:50.304Z,2.03
2022-08-26T12:53:54.005Z,1.77
2022-08-26T12:59:26.863Z,1.90
2022-08-26T13:04:34.035Z,1.95
2022-08-26T13:09:36.946Z,2.60
2022-08-26T13:14:40.264Z,2.00
2022-08-26T13:19:44.164Z,1.60
2022-08-26T13:24:48.363Z,1.95
2022-08-26T13:29:52.665Z,1.90
2022-08-26T13:34:57.905Z,1.98
2022-08-26T13:45:05.994Z,2.00
2022-08-26T13:50:27.557Z,2.45
2022-08-26T13:55:49.207Z,2.03
2022-08-26T14:00:53.151Z,2.38
2022-08-26T14:05:57.332Z,1.50
2022-08-26T14:11:01.089Z,1.88
2022-08-26T14:16:08.801Z,2.20
2022-08-26T14:21:14.005Z,2.05
2022-08-26T14:26:28.339Z,3.13
2022-08-26T14:31:34.200Z,2.70
2022-08-26T14:36:38.066Z,2.70
2022-08-26T14:41:53.725Z,2.53
2022-08-26T14:46:59.720Z,3.65
2022-08-26T14:52:02.405Z,3.30
2022-08-26T14:57:07.644Z,3.25
2022-08-26T15:02:30.882Z,2.83
2022-08-26T15:07:36.345Z,2.90
2022-08-26T15:12:57.444Z,2.70
2022-08-26T15:17:59.813Z,2.90
2022-08-26T15:23:06.212Z,3.13
2022-08-26T15:28:08.764Z,2.80
2022-08-26T15:33:15.289Z,3.10
2022-08-26T15:38:25.853Z,4.07
2022-08-26T15:43:29.281Z,3.38
2022-08-26T15:48:52.928Z,3.67
2022-08-26T15:53:56.330Z,3.20
2022-08-26T15:58:59.207Z,3.28
2022-08-26T16:04:02.304Z,2.63
2022-08-26T16:09:25.265Z,3.17
2022-08-26T16:14:27.767Z,2.67
2022-08-26T16:19:30.053Z,2.50
2022-08-26T16:24:51.065Z,1.90
2022-08-26T16:29:53.213Z,7.53
2022-08-26T16:34:56.620Z,2.17
2022-08-26T16:40:00.622Z,2.10
2022-08-26T16:45:03.984Z,1.90
2022-08-26T16:50:07.345Z,1.58
2022-08-26T16:55:13.475Z,1.70
2022-08-26T17:00:24.223Z,1.83
2022-08-26T17:05:27.505Z,2.08
2022-08-26T17:10:30.541Z,19.30
2022-08-26T17:15:33.577Z,6.53
2022-08-26T17:20:36.245Z,2.50
2022-08-26T17:25:40.405Z,2.83
2022-08-26T17:30:42.888Z,7.28
2022-08-26T17:35:45.216Z,2.30
2022-08-26T17:40:47.798Z,2.63
2022-08-26T17:45:50.070Z,2.33
2022-08-26T17:50:53.336Z,2.30
2022-08-26T17:55:56.576Z,2.60
2022-08-26T18:00:59.370Z,2.35
2022-08-26T18:06:03.000Z,3.08
2022-08-26T18:11:14.250Z,3.33
2022-08-26T18:16:18.613Z,3.75
2022-08-26T18:21:27.217Z,3.67
2022-08-26T18:26:35.104Z,3.60
2022-08-26T18:31:37.888Z,2.25
2022-08-26T18:36:58.951Z,2.72
2022-08-26T18:42:01.665Z,3.45
2022-08-26T18:47:04.046Z,2.92
2022-08-26T18:52:06.497Z,2.33
2022-08-26T18:57:08.998Z,2.13
2022-08-26T19:02:30.652Z,3.33
2022-08-26T19:07:51.489Z,2.53
2022-08-26T19:12:55.383Z,2.20
2022-08-26T19:18:01.258Z,2.27
2022-08-26T19:23:31.572Z,2.13
2022-08-26T19:28:38.651Z,2.20
2022-08-26T19:33:43.938Z,2.38
2022-08-26T19:38:46.738Z,2.58
2022-08-26T19:43:50.307Z,2.42
2022-08-26T19:48:55.758Z,2.75
2022-08-26T19:54:01.259Z,2.20
2022-08-26T19:59:04.211Z,3.22
2022-08-26T20:04:07.013Z,3.10
2022-08-26T20:09:09.600Z,3.53
2022-08-26T20:14:13.499Z,3.38
2022-08-26T20:19:16.171Z,4.45
2022-08-26T20:24:20.218Z,4.80
2022-08-26T20:29:23.446Z,4.15
2022-08-26T20:34:26.025Z,3.97
2022-08-26T20:39:28.630Z,3.92
2022-08-26T20:44:31.904Z,4.43
2022-08-26T20:49:36.368Z,3.75
2022-08-26T20:54:39.444Z,3.42
2022-08-26T21:00:00.628Z,3.58
2022-08-26T21:05:03.272Z,4.50
2022-08-26T21:10:06.846Z,4.22
2022-08-26T21:15:28.066Z,4.28
2022-08-26T21:20:38.545Z,4.30
2022-08-26T21:25:41.105Z,4.45
2022-08-26T21:30:44.256Z,4.78
2022-08-26T21:35:54.205Z,5.03
2022-08-26T21:41:01.545Z,3.22
2022-08-26T21:46:25.003Z,4.88
2022-08-26T21:51:30.631Z,3.50
2022-08-26T21:56:36.783Z,3.83
2022-08-26T22:01:39.271Z,3.50
2022-08-26T22:07:00.006Z,3.50
2022-08-26T22:12:02.653Z,3.45
2022-08-26T22:17:05.412Z,4.07
2022-08-26T22:22:07.851Z,3.70
2022-08-26T22:27:10.632Z,4.70
2022-08-26T22:32:14.449Z,5.63
2022-08-26T22:37:16.913Z,5.65
2022-08-26T22:42:19.364Z,4.65
2022-08-26T22:47:41.912Z,5.28
2022-08-26T22:52:44.265Z,5.35
2022-08-26T22:57:46.620Z,5.47
2022-08-26T23:02:49.256Z,5.70
2022-08-26T23:07:51.894Z,5.88
2022-08-26T23:13:14.063Z,5.35
2022-08-26T23:18:17.066Z,5.68
2022-08-26T23:23:19.494Z,4.40
2022-08-26T23:28:22.306Z,4.15
2022-08-26T23:33:25.191Z,4.22
2022-08-26T23:38:27.555Z,4.22
2022-08-26T23:43:31.976Z,9.18
2022-08-26T23:48:34.585Z,5.28
2022-08-26T23:53:36.873Z,5.53
2022-08-26T23:58:39.296Z,7.22
